Terminal Aerodrome Forecast
Issued by NWS

Home | Current Version | Previous Version | Text Only | Print | Product List | Glossary On
Versions: 1 2 3 4 5 6 7 8 9 10 11 12
824
FTUS45 KVEF 202320
TAFEED
TAF
KEED 202320Z 2100/2124 20013G23KT P6SM SKC
     FM210600 24008KT P6SM SKC
     FM211700 18012KT P6SM SKC
     FM212000 21020G28KT P6SM SKC=

USA.gov is the U.S. government's official web portal to all federal, state and local government web resources and services.